createdAt,value
2023-03-05T00:01:34.293Z,75.73
2023-03-05T00:04:04.053Z,76.02
2023-03-05T00:06:33.859Z,75.91
2023-03-05T00:09:03.585Z,76.12
2023-03-05T00:11:34.154Z,76.08
2023-03-05T00:14:04.847Z,75.96
2023-03-05T00:16:33.701Z,76.05
2023-03-05T00:19:03.011Z,76.14
2023-03-05T00:21:33.624Z,76.11
2023-03-05T00:24:05.207Z,76.13
2023-03-05T00:26:39.005Z,76.19
2023-03-05T00:29:09.404Z,76.33
2023-03-05T00:31:39.085Z,76.22
2023-03-05T00:34:12.246Z,76.39
2023-03-05T00:36:43.171Z,76.08
2023-03-05T00:39:12.295Z,76.54
2023-03-05T00:41:41.973Z,76.40
2023-03-05T00:44:10.649Z,76.42
2023-03-05T00:46:40.204Z,76.61
2023-03-05T00:49:08.895Z,76.43
2023-03-05T00:51:37.646Z,76.55
2023-03-05T00:54:06.930Z,76.48
2023-03-05T00:56:35.756Z,76.64
2023-03-05T00:59:05.460Z,76.35
2023-03-05T01:01:33.986Z,76.62
2023-03-05T01:04:04.526Z,76.71
2023-03-05T01:06:33.096Z,76.52
2023-03-05T01:09:01.770Z,76.79
2023-03-05T01:11:31.915Z,76.47
2023-03-05T01:14:00.662Z,76.89
2023-03-05T01:16:32.230Z,76.69
2023-03-05T01:19:00.926Z,76.98
2023-03-05T01:21:29.516Z,76.98
2023-03-05T01:23:58.828Z,76.74
2023-03-05T01:26:27.462Z,76.82
2023-03-05T01:28:55.725Z,76.97
2023-03-05T01:31:24.593Z,76.80
2023-03-05T01:33:55.838Z,77.12
2023-03-05T01:36:25.239Z,76.93
2023-03-05T01:38:54.134Z,77.18
2023-03-05T01:41:22.804Z,77.18
2023-03-05T01:43:52.851Z,77.42
2023-03-05T01:46:38.115Z,77.05
2023-03-05T01:49:21.842Z,77.29
2023-03-05T01:52:01.037Z,77.23
2023-03-05T01:54:34.582Z,77.13
2023-03-05T01:57:10.793Z,77.20
2023-03-05T01:59:41.089Z,77.25
2023-03-05T02:02:10.118Z,77.22
2023-03-05T02:04:43.773Z,77.10
2023-03-05T02:07:12.853Z,77.40
2023-03-05T02:09:42.174Z,77.57
2023-03-05T02:12:13.486Z,77.31
2023-03-05T02:14:44.315Z,77.35
2023-03-05T02:17:13.444Z,77.46
2023-03-05T02:19:52.463Z,77.48
2023-03-05T02:22:25.037Z,77.79
2023-03-05T02:24:53.902Z,77.55
2023-03-05T02:27:34.690Z,77.65
2023-03-05T02:30:04.572Z,77.61
2023-03-05T02:32:33.215Z,77.62
2023-03-05T02:35:01.913Z,77.94
2023-03-05T02:37:31.730Z,77.92
2023-03-05T02:40:00.013Z,77.71
2023-03-05T02:42:30.882Z,77.80
2023-03-05T02:44:59.457Z,77.77
2023-03-05T02:47:28.121Z,77.84
2023-03-05T02:49:57.539Z,77.95
2023-03-05T02:52:26.852Z,77.94
2023-03-05T02:54:56.426Z,78.05
2023-03-05T02:57:25.960Z,78.24
2023-03-05T02:59:55.300Z,77.90
2023-03-05T03:02:24.046Z,78.31
2023-03-05T03:04:52.602Z,78.28
2023-03-05T03:07:21.317Z,78.50
2023-03-05T03:09:49.950Z,78.29
2023-03-05T03:12:19.538Z,78.24
2023-03-05T03:14:48.071Z,78.08
2023-03-05T03:17:19.329Z,78.20
2023-03-05T03:19:48.139Z,78.19
2023-03-05T03:22:17.218Z,78.18
2023-03-05T03:24:45.954Z,78.35
2023-03-05T03:27:14.134Z,78.16
2023-03-05T03:29:43.747Z,78.30
2023-03-05T03:32:12.034Z,78.44
2023-03-05T03:34:40.614Z,78.57
2023-03-05T03:37:09.964Z,78.61
2023-03-05T03:39:38.281Z,78.30
2023-03-05T03:42:07.008Z,78.41
2023-03-05T03:44:35.524Z,78.58
2023-03-05T03:47:05.533Z,78.54
2023-03-05T03:49:33.818Z,78.58
2023-03-05T03:52:02.002Z,78.91
2023-03-05T03:54:30.802Z,78.60
2023-03-05T03:56:59.302Z,78.86
2023-03-05T03:59:27.864Z,78.91
2023-03-05T04:01:56.426Z,78.68
2023-03-05T04:04:26.461Z,78.73
2023-03-05T04:06:55.054Z,78.92
2023-03-05T04:09:23.588Z,78.81
2023-03-05T04:11:52.100Z,79.11
2023-03-05T04:14:20.658Z,79.00
2023-03-05T04:16:49.164Z,79.15
2023-03-05T04:19:17.675Z,78.91
2023-03-05T04:21:47.220Z,79.00
2023-03-05T04:24:15.749Z,79.27
2023-03-05T04:26:44.331Z,78.91
2023-03-05T04:29:12.597Z,79.14
2023-03-05T04:31:41.141Z,79.05
2023-03-05T04:34:09.639Z,79.13
2023-03-05T04:36:37.982Z,79.07
2023-03-05T04:39:07.523Z,79.16
2023-03-05T04:41:35.711Z,79.45
2023-03-05T04:44:04.497Z,79.23
2023-03-05T04:46:32.888Z,79.57
2023-03-05T04:49:01.732Z,79.42
2023-03-05T04:51:30.303Z,79.43
2023-03-05T04:53:58.859Z,79.65
2023-03-05T04:56:28.610Z,79.72
2023-03-05T04:58:57.137Z,79.82
2023-03-05T05:01:25.785Z,79.49
2023-03-05T05:03:54.439Z,79.90
2023-03-05T05:06:22.925Z,79.94
2023-03-05T05:08:51.502Z,80.09
2023-03-05T05:11:19.721Z,79.83
2023-03-05T05:13:49.278Z,79.68
2023-03-05T05:16:18.195Z,80.03
2023-03-05T05:18:46.723Z,79.76
2023-03-05T05:21:16.109Z,80.15
2023-03-05T05:23:44.628Z,79.84
2023-03-05T05:26:14.563Z,79.72
2023-03-05T05:28:44.244Z,80.03
2023-03-05T05:31:16.807Z,79.83
2023-03-05T05:33:47.523Z,80.18
2023-03-05T05:36:20.052Z,80.02
2023-03-05T05:38:48.929Z,79.89
2023-03-05T05:41:19.405Z,80.03
2023-03-05T05:43:48.556Z,80.06
2023-03-05T05:46:20.693Z,80.08
2023-03-05T05:48:49.848Z,80.24
2023-03-05T05:51:21.130Z,80.11
2023-03-05T05:53:50.424Z,80.19
2023-03-05T05:56:19.567Z,79.97
2023-03-05T05:58:49.965Z,80.27
2023-03-05T06:01:23.239Z,80.15
2023-03-05T06:03:52.162Z,80.20
2023-03-05T06:06:23.822Z,80.24
2023-03-05T06:08:52.766Z,80.22
2023-03-05T06:11:22.348Z,80.34
2023-03-05T06:13:52.860Z,80.15
2023-03-05T06:16:25.710Z,80.42
2023-03-05T06:18:54.902Z,80.29
2023-03-05T06:21:24.239Z,80.16
2023-03-05T06:23:53.398Z,80.26
2023-03-05T06:26:23.697Z,80.44
2023-03-05T06:28:52.797Z,80.20
2023-03-05T06:31:25.571Z,80.46
2023-03-05T06:33:56.603Z,80.56
2023-03-05T06:36:26.774Z,80.57
2023-03-05T06:38:55.517Z,80.73
2023-03-05T06:41:26.231Z,80.41
2023-03-05T06:43:55.524Z,80.27
2023-03-05T06:46:27.368Z,80.57
2023-03-05T06:48:58.717Z,80.68
2023-03-05T06:51:30.233Z,80.64
2023-03-05T06:54:02.468Z,80.46
2023-03-05T06:56:31.009Z,80.71
2023-03-05T06:59:00.534Z,80.86
2023-03-05T07:01:30.318Z,80.83
2023-03-05T07:04:00.266Z,80.36
2023-03-05T07:06:29.065Z,80.56
2023-03-05T07:08:58.045Z,80.56
2023-03-05T07:11:26.650Z,80.92
2023-03-05T07:13:55.340Z,80.54
2023-03-05T07:16:25.732Z,80.50
2023-03-05T07:18:57.113Z,80.71
2023-03-05T07:21:28.071Z,80.58
2023-03-05T07:23:58.832Z,80.40
2023-03-05T07:26:28.331Z,80.48
2023-03-05T07:28:56.986Z,80.35
2023-03-05T07:31:27.294Z,80.57
2023-03-05T07:33:57.268Z,80.59
2023-03-05T07:36:25.814Z,80.48
2023-03-05T07:38:54.561Z,80.39
2023-03-05T07:41:23.497Z,80.01
2023-03-05T07:43:54.403Z,80.37
2023-03-05T07:46:26.035Z,80.15
2023-03-05T07:48:56.258Z,80.03
2023-03-05T07:51:26.297Z,79.87
2023-03-05T07:53:58.401Z,79.75
2023-03-05T07:56:31.722Z,79.63
2023-03-05T07:59:01.273Z,79.94
2023-03-05T08:01:30.590Z,79.69
2023-03-05T08:04:00.303Z,79.63
2023-03-05T08:06:28.786Z,79.66
2023-03-05T08:08:58.169Z,79.76
2023-03-05T08:11:28.414Z,79.51
2023-03-05T08:13:59.278Z,79.58
2023-03-05T08:16:28.140Z,79.24
2023-03-05T08:18:57.460Z,79.13
2023-03-05T08:21:29.772Z,79.06
2023-03-05T08:23:59.191Z,78.90
2023-03-05T08:26:30.495Z,78.84
2023-03-05T08:28:59.860Z,78.67
2023-03-05T08:31:30.184Z,78.36
2023-03-05T08:34:00.690Z,78.53
2023-03-05T08:36:31.296Z,78.44
2023-03-05T08:39:00.613Z,78.15
2023-03-05T08:41:29.398Z,77.68
2023-03-05T08:43:58.195Z,77.71
2023-03-05T08:46:26.537Z,77.62
2023-03-05T08:48:55.257Z,77.44
2023-03-05T08:51:26.949Z,77.12
2023-03-05T08:53:59.796Z,77.22
2023-03-05T08:56:31.112Z,77.00
2023-03-05T08:59:00.475Z,76.70
2023-03-05T09:01:30.561Z,76.53
2023-03-05T09:03:59.785Z,76.19
2023-03-05T09:06:29.324Z,76.46
2023-03-05T09:08:58.987Z,76.26
2023-03-05T09:11:27.518Z,76.05
2023-03-05T09:13:55.712Z,75.92
2023-03-05T09:16:24.327Z,75.92
2023-03-05T09:18:52.895Z,75.84
2023-03-05T09:21:21.594Z,75.62
2023-03-05T09:23:50.113Z,75.36
2023-03-05T09:26:20.599Z,75.17
2023-03-05T09:28:49.472Z,75.05
2023-03-05T09:31:18.485Z,75.09
2023-03-05T09:33:48.170Z,74.80
2023-03-05T09:36:21.727Z,74.73
2023-03-05T09:38:50.959Z,74.60
2023-03-05T09:41:31.039Z,74.32
2023-03-05T09:44:12.055Z,73.97
2023-03-05T09:46:53.243Z,73.89
2023-03-05T09:49:33.654Z,73.66
2023-03-05T09:52:08.925Z,73.53
2023-03-05T09:54:42.820Z,73.22
2023-03-05T09:57:18.913Z,73.10
2023-03-05T09:59:52.635Z,73.00
2023-03-05T10:02:27.269Z,72.85
2023-03-05T10:04:59.493Z,73.11
2023-03-05T10:07:31.836Z,72.76
2023-03-05T10:10:04.653Z,72.57
2023-03-05T10:12:42.606Z,72.47
2023-03-05T10:15:16.012Z,72.42
2023-03-05T10:18:00.881Z,72.37
2023-03-05T10:20:45.570Z,72.04
2023-03-05T10:23:44.117Z,72.07
2023-03-05T10:26:28.829Z,71.74
2023-03-05T10:29:17.379Z,71.78
2023-03-05T10:32:05.238Z,71.50
2023-03-05T10:34:53.355Z,71.29
2023-03-05T10:38:00.458Z,71.17
2023-03-05T10:40:36.557Z,70.93
2023-03-05T10:43:20.479Z,70.74
2023-03-05T10:45:53.604Z,70.65
2023-03-05T10:48:36.553Z,70.55
2023-03-05T10:51:14.389Z,70.23
2023-03-05T10:53:55.922Z,70.08
2023-03-05T10:56:26.195Z,69.84
2023-03-05T10:58:55.085Z,69.78
2023-03-05T11:01:28.648Z,69.54
2023-03-05T11:03:59.794Z,69.42
2023-03-05T11:06:36.064Z,69.22
2023-03-05T11:09:24.147Z,69.44
2023-03-05T11:12:13.214Z,69.18
2023-03-05T11:14:44.251Z,68.96
2023-03-05T11:17:32.431Z,68.74
2023-03-05T11:20:33.529Z,68.63
2023-03-05T11:23:13.315Z,68.33
2023-03-05T11:26:02.047Z,68.23
2023-03-05T11:28:35.265Z,67.91
2023-03-05T11:31:24.233Z,68.18
2023-03-05T11:34:01.056Z,68.04
2023-03-05T11:36:33.353Z,68.08
2023-03-05T11:39:12.377Z,67.98
2023-03-05T11:41:43.626Z,67.88
2023-03-05T11:44:16.917Z,67.78
2023-03-05T11:46:48.515Z,67.69
2023-03-05T11:49:25.431Z,67.85
2023-03-05T11:52:03.030Z,67.82
2023-03-05T11:54:40.177Z,67.91
2023-03-05T11:57:12.485Z,67.88
2023-03-05T11:59:41.122Z,67.71
2023-03-05T12:02:21.491Z,67.64
2023-03-05T12:04:52.040Z,67.51
2023-03-05T12:07:28.348Z,67.59
2023-03-05T12:09:56.774Z,67.48
2023-03-05T12:12:42.005Z,67.63
2023-03-05T12:15:49.104Z,67.32
2023-03-05T12:18:33.781Z,67.43
2023-03-05T12:21:08.952Z,67.45
2023-03-05T12:23:50.645Z,67.46
2023-03-05T12:26:19.956Z,67.00
2023-03-05T12:28:57.283Z,67.25
2023-03-05T12:31:38.661Z,67.15
2023-03-05T12:34:47.095Z,67.28
2023-03-05T12:38:06.126Z,67.36
2023-03-05T12:40:39.397Z,67.16
2023-03-05T12:43:32.925Z,67.47
2023-03-05T12:46:35.592Z,67.64
2023-03-05T12:49:29.863Z,67.74
2023-03-05T12:51:59.665Z,67.41
2023-03-05T12:54:35.396Z,67.54
2023-03-05T12:57:07.692Z,67.51
2023-03-05T12:59:44.557Z,67.40
2023-03-05T13:02:24.514Z,67.64
2023-03-05T13:04:58.550Z,67.68
2023-03-05T13:07:27.172Z,67.79
2023-03-05T13:10:00.720Z,67.77
2023-03-05T13:12:31.023Z,67.75
2023-03-05T13:15:03.094Z,67.50
2023-03-05T13:17:38.017Z,67.46
2023-03-05T13:20:30.037Z,67.47
2023-03-05T13:23:18.642Z,67.41
2023-03-05T13:26:03.210Z,67.65
2023-03-05T13:28:33.393Z,67.58
2023-03-05T13:31:11.757Z,67.24
2023-03-05T13:33:40.349Z,67.28
2023-03-05T13:36:09.108Z,67.21
2023-03-05T13:38:41.510Z,67.38
2023-03-05T13:41:24.475Z,67.21
2023-03-05T13:43:55.487Z,67.22
2023-03-05T13:46:30.196Z,67.31
2023-03-05T13:48:59.932Z,67.23
2023-03-05T13:51:45.074Z,67.37
2023-03-05T13:54:16.870Z,67.30
2023-03-05T13:56:56.678Z,67.09
2023-03-05T13:59:28.179Z,67.18
2023-03-05T14:01:58.456Z,67.27
2023-03-05T14:04:29.316Z,67.19
2023-03-05T14:07:03.184Z,67.18
2023-03-05T14:09:46.969Z,67.07
2023-03-05T14:12:31.328Z,67.22
2023-03-05T14:15:02.258Z,67.19
2023-03-05T14:17:39.825Z,67.17
2023-03-05T14:20:25.876Z,67.21
2023-03-05T14:22:57.792Z,67.13
2023-03-05T14:25:38.387Z,67.37
2023-03-05T14:28:26.142Z,67.29
2023-03-05T14:30:58.212Z,67.19
2023-03-05T14:33:30.587Z,67.30
2023-03-05T14:36:01.331Z,67.48
2023-03-05T14:38:33.479Z,67.18
2023-03-05T14:41:34.190Z,67.40
2023-03-05T14:44:09.995Z,67.51
2023-03-05T14:46:38.573Z,67.42
2023-03-05T14:49:07.378Z,67.46
2023-03-05T14:51:40.148Z,66.81
2023-03-05T14:54:08.975Z,67.30
2023-03-05T14:56:37.506Z,67.11
2023-03-05T14:59:07.174Z,67.15
2023-03-05T15:01:35.761Z,66.86
2023-03-05T15:04:04.327Z,67.03
2023-03-05T15:06:36.161Z,66.68
2023-03-05T15:09:06.242Z,66.27
2023-03-05T15:11:35.007Z,66.32
2023-03-05T15:14:03.590Z,66.35
2023-03-05T15:16:33.198Z,66.03
2023-03-05T15:19:03.373Z,66.21
2023-03-05T15:21:31.927Z,66.09
2023-03-05T15:24:00.713Z,65.96
2023-03-05T15:26:29.234Z,66.09
2023-03-05T15:31:38.249Z,66.26
2023-03-05T15:34:06.868Z,66.01
2023-03-05T15:36:35.375Z,66.20
2023-03-05T15:39:03.764Z,66.24
2023-03-05T15:41:32.286Z,66.24
2023-03-05T15:44:00.816Z,66.25
2023-03-05T15:47:04.736Z,66.27
2023-03-05T15:51:04.869Z,66.24
2023-03-05T15:53:46.759Z,66.33
2023-03-05T15:56:19.289Z,66.35
2023-03-05T15:58:49.910Z,66.27
2023-03-05T16:01:20.677Z,66.59
2023-03-05T16:11:18.887Z,66.70
2023-03-05T16:13:50.517Z,66.71
2023-03-05T16:16:19.549Z,66.53
2023-03-05T16:18:48.839Z,66.48
2023-03-05T16:21:17.542Z,66.64
2023-03-05T16:23:49.319Z,66.55
2023-03-05T16:26:17.800Z,66.92
2023-03-05T16:28:46.370Z,66.88
2023-03-05T16:31:14.661Z,66.62
2023-03-05T16:33:43.237Z,66.54
2023-03-05T16:36:24.969Z,66.89
2023-03-05T16:38:58.058Z,66.78
2023-03-05T16:41:27.460Z,66.97
2023-03-05T16:43:57.447Z,67.06
2023-03-05T16:46:27.565Z,67.03
2023-03-05T16:48:56.317Z,66.87
2023-03-05T16:51:24.836Z,67.00
2023-03-05T16:53:55.702Z,67.11
2023-03-05T16:56:24.575Z,67.15
2023-03-05T16:58:55.140Z,67.17
2023-03-05T17:01:24.508Z,67.38
2023-03-05T17:03:53.704Z,67.38
2023-03-05T17:06:24.921Z,67.30
2023-03-05T17:08:55.485Z,67.21
2023-03-05T17:11:25.626Z,67.24
2023-03-05T17:13:54.216Z,67.64
2023-03-05T17:16:23.099Z,67.54
2023-03-05T17:18:51.976Z,67.46
2023-03-05T17:21:20.480Z,67.45
2023-03-05T17:23:49.183Z,67.88
2023-03-05T17:26:20.614Z,67.56
2023-03-05T17:28:49.453Z,67.51
2023-03-05T17:31:17.880Z,67.62
2023-03-05T17:33:46.501Z,67.34
2023-03-05T17:36:16.435Z,67.70
2023-03-05T17:38:46.265Z,67.78
2023-03-05T17:41:15.518Z,67.49
2023-03-05T17:43:45.334Z,67.51
2023-03-05T17:46:14.147Z,67.62
2023-03-05T17:48:42.688Z,67.67
2023-03-05T17:51:16.270Z,67.59
2023-03-05T17:53:44.907Z,67.54
2023-03-05T17:56:16.824Z,67.54
2023-03-05T17:58:46.383Z,67.62
2023-03-05T18:01:24.477Z,68.02
2023-03-05T18:03:53.033Z,68.07
2023-03-05T18:06:21.570Z,67.99
2023-03-05T18:08:50.681Z,68.07
2023-03-05T18:11:19.410Z,68.09
2023-03-05T18:13:49.232Z,68.06
2023-03-05T18:16:18.192Z,68.11
2023-03-05T18:18:46.813Z,67.95
2023-03-05T18:21:20.950Z,68.04
2023-03-05T18:23:50.009Z,67.89
2023-03-05T18:26:18.620Z,68.05
2023-03-05T18:28:48.544Z,67.98
2023-03-05T18:31:17.012Z,68.16
2023-03-05T18:33:45.194Z,68.24
2023-03-05T18:36:14.991Z,68.06
2023-03-05T18:38:43.787Z,68.30
2023-03-05T18:41:21.436Z,68.03
2023-03-05T18:43:53.562Z,68.34
2023-03-05T18:46:22.180Z,68.22
2023-03-05T18:48:50.893Z,68.38
2023-03-05T18:51:21.580Z,68.08
2023-03-05T18:53:50.256Z,67.88
2023-03-05T18:56:18.708Z,68.25
2023-03-05T18:58:47.579Z,68.17
2023-03-05T19:01:19.050Z,68.01
2023-03-05T19:03:49.973Z,68.18
2023-03-05T19:06:18.682Z,68.24
2023-03-05T19:08:50.747Z,68.39
2023-03-05T19:11:22.156Z,68.27
2023-03-05T19:13:51.146Z,68.32
2023-03-05T19:16:23.017Z,68.24
2023-03-05T19:18:59.750Z,68.39
2023-03-05T19:21:29.835Z,68.31
2023-03-05T19:23:58.404Z,68.40
2023-03-05T19:26:26.921Z,68.27
2023-03-05T19:28:55.438Z,68.33
2023-03-05T19:31:25.171Z,68.37
2023-03-05T19:33:54.665Z,68.38
2023-03-05T19:36:23.506Z,68.43
2023-03-05T19:38:52.043Z,68.25
2023-03-05T19:41:21.613Z,68.46
2023-03-05T19:43:50.474Z,68.46
2023-03-05T19:46:19.340Z,68.34
2023-03-05T19:48:48.973Z,68.26
2023-03-05T19:51:20.939Z,68.29
2023-03-05T19:53:49.472Z,68.38
2023-03-05T19:56:19.001Z,68.22
2023-03-05T19:58:48.972Z,68.34
2023-03-05T20:01:20.318Z,68.21
2023-03-05T20:03:53.372Z,68.62
2023-03-05T20:06:23.191Z,68.36
2023-03-05T20:08:51.719Z,68.53
2023-03-05T20:11:21.618Z,68.69
2023-03-05T20:13:51.298Z,68.73
2023-03-05T20:16:22.360Z,68.54
2023-03-05T20:18:54.432Z,68.74
2023-03-05T20:21:24.947Z,68.64
2023-03-05T20:23:54.935Z,68.87
2023-03-05T20:26:25.776Z,68.72
2023-03-05T20:28:55.010Z,69.03
2023-03-05T20:31:26.862Z,69.01
2023-03-05T20:33:57.142Z,68.85
2023-03-05T20:36:25.737Z,68.75
2023-03-05T20:38:53.975Z,68.95
2023-03-05T20:41:22.419Z,68.76
2023-03-05T20:43:52.889Z,68.76
2023-03-05T20:46:23.941Z,69.19
2023-03-05T20:48:54.616Z,68.94
2023-03-05T20:51:27.525Z,69.00
2023-03-05T20:53:58.411Z,69.22
2023-03-05T20:56:27.876Z,68.94
2023-03-05T20:58:58.165Z,69.14
2023-03-05T21:01:27.305Z,69.03
2023-03-05T21:03:57.005Z,69.17
2023-03-05T21:06:29.628Z,69.46
2023-03-05T21:08:58.250Z,69.12
2023-03-05T21:11:27.232Z,69.15
2023-03-05T21:13:55.600Z,69.52
2023-03-05T21:16:27.862Z,69.32
2023-03-05T21:18:57.273Z,69.53
2023-03-05T21:21:27.165Z,69.58
2023-03-05T21:23:55.833Z,69.25
2023-03-05T21:26:24.084Z,69.51
2023-03-05T21:28:52.677Z,69.56
2023-03-05T21:31:23.769Z,69.40
2023-03-05T21:33:52.482Z,69.34
2023-03-05T21:36:21.122Z,69.48
2023-03-05T21:38:51.140Z,69.50
2023-03-05T21:41:20.481Z,69.33
2023-03-05T21:43:49.028Z,69.86
2023-03-05T21:46:17.730Z,69.60
2023-03-05T21:48:46.624Z,69.43
2023-03-05T21:51:28.943Z,69.77
2023-03-05T21:53:58.728Z,69.70
2023-03-05T21:56:28.031Z,69.52
2023-03-05T21:58:56.574Z,69.69
2023-03-05T22:01:25.144Z,69.62
2023-03-05T22:03:53.897Z,70.00
2023-03-05T22:06:22.324Z,69.54
2023-03-05T22:08:50.862Z,69.60
2023-03-05T22:11:21.771Z,69.57
2023-03-05T22:13:50.379Z,69.70
2023-03-05T22:16:23.517Z,70.02
2023-03-05T22:18:52.596Z,69.71
2023-03-05T22:21:25.677Z,69.97
2023-03-05T22:23:58.981Z,69.80
2023-03-05T22:26:36.866Z,69.77
2023-03-05T22:29:05.864Z,70.03
2023-03-05T22:31:34.493Z,69.95
2023-03-05T22:34:03.029Z,70.15
2023-03-05T22:36:31.597Z,70.28
2023-03-05T22:38:59.838Z,69.98
2023-03-05T22:41:29.362Z,70.32
2023-03-05T22:43:57.611Z,70.15
2023-03-05T22:46:27.764Z,69.99
2023-03-05T22:48:56.088Z,70.11
2023-03-05T22:51:24.629Z,69.91
2023-03-05T22:53:53.177Z,69.89
2023-03-05T22:56:22.019Z,70.01
2023-03-05T22:58:51.614Z,70.08
2023-03-05T23:01:23.117Z,70.45
2023-03-05T23:03:58.712Z,70.22
2023-03-05T23:06:27.716Z,70.18
2023-03-05T23:08:56.445Z,70.35
2023-03-05T23:11:25.254Z,70.15
2023-03-05T23:13:54.854Z,70.05
2023-03-05T23:16:23.475Z,70.35
2023-03-05T23:18:51.688Z,70.40
2023-03-05T23:21:20.183Z,70.26
2023-03-05T23:23:48.698Z,70.26
2023-03-05T23:26:17.450Z,70.32
2023-03-05T23:28:45.649Z,70.34
2023-03-05T23:31:18.307Z,70.62
2023-03-05T23:33:47.070Z,70.76
2023-03-05T23:36:19.771Z,70.49
2023-03-05T23:38:48.794Z,70.64
2023-03-05T23:41:17.325Z,70.87
2023-03-05T23:43:45.873Z,70.53
2023-03-05T23:46:15.734Z,70.66
2023-03-05T23:48:44.471Z,70.91
2023-03-05T23:51:13.019Z,70.50
2023-03-05T23:53:41.559Z,70.97
2023-03-05T23:56:11.570Z,70.92
2023-03-05T23:58:40.766Z,71.12
